Daily Tabular Data
[Select Refresh to Update]


5/31/20
Time         Wind Dir   Wind Spd  Wind Gust     Hum In   Humidity    Temp In       Temp  Raw Barom   Tot Rain Wind Chill Heat Ix In Heat Index  Dew Point  DailyRain   HourRain   RainRate
                            mph        mph          %          %         F         F         in         in         F         F         F         F         in         in      in/hr
12:00am           300          0          3         56         91       72.2       60.4      29.10      15.90       60.4       73.6       66.2       57.8       0.00       0.00      0.000
12:30am           300          0          2         56         91       72.4       60.5      29.09      15.90       60.5       73.8       66.3       57.9       0.00       0.00      0.000
1:00am            326          0          0         56         91       72.5       59.9      29.08      15.90       59.9       73.9       65.7       57.3       0.00       0.00      0.000
1:30am            326          0          0         55         89       72.4       59.5      29.07      15.90       59.5       73.7       65.0       56.3       0.00       0.00      0.000
2:00am            329          0          0         54         88       72.3       59.7      29.07      15.90       59.7       73.5       65.0       56.1       0.00       0.00      0.000
2:30am            329          0          0         53         88       72.0       59.0      29.07      15.90       59.0       73.1       64.3       55.5       0.00       0.00      0.000
3:00am            329          0          0         53         86       71.8       58.6      29.07      15.90       58.6       72.9       63.7       54.4       0.00       0.00      0.000
3:30am            329          0          0         53         87       71.6       58.2      29.07      15.90       58.2       72.7       63.4       54.4       0.00       0.00      0.000
4:00am            329          0          0         53         87       71.3       58.6      29.07      15.90       58.6       72.4       63.8       54.7       0.00       0.00      0.000
4:30am            329          0          0         54         90       71.2       58.6      29.07      15.90       58.6       72.4       64.2       55.7       0.00       0.00      0.000
5:00am            327          0          0         54         91       71.2       58.4      29.07      15.90       58.4       72.4       64.2       55.8       0.00       0.00      0.000
5:30am            295          0          0         55         92       71.2       58.9      29.07      15.90       58.9       72.5       64.8       56.6       0.00       0.00      0.000
6:00am            254          3          5         55         91       71.2       58.2      29.07      15.90       58.2       72.5       64.0       55.6       0.00       0.00      0.000
6:30am            313          0          4         55         91       71.2       58.0      29.08      15.90       58.0       72.5       63.8       55.4       0.00       0.00      0.000
7:00am            293          3          6         55         91       71.2       58.3      29.09      15.90       58.3       72.5       64.1       55.7       0.00       0.00      0.000
7:30am            278          0          4         55         91       71.1       59.6      29.10      15.90       59.6       72.4       65.4       57.0       0.00       0.00      0.000
8:00am            311          0          3         55         89       71.1       59.4      29.10      15.90       59.4       72.4       64.9       56.2       0.00       0.00      0.000
8:30am            312          0          7         55         87       71.3       60.4      29.10      15.90       60.4       72.6       65.6       56.5       0.00       0.00      0.000
9:00am            335          0          3         54         83       71.4       62.6      29.10      15.90       62.6       72.6       67.2       57.4       0.00       0.00      0.000
9:30am            327          0          3         54         78       71.7       65.6      29.11      15.90       65.6       72.9       69.6       58.6       0.00       0.00      0.000
10:00am           267          1          3         54         73       72.0       67.1      29.10      15.90       67.1       73.2       70.4       58.2       0.00       0.00      0.000
10:30am           264          1          6         55         74       71.9       66.6      29.10      15.90       66.6       73.2       70.0       58.1       0.00       0.00      0.000
11:00am           307          0          8         55         70       72.2       68.4      29.10      15.90       68.4       73.5       71.4       58.2       0.00       0.00      0.000
11:30am           288          5          8         54         68       72.7       69.0      29.10      15.90       69.0       73.9       71.7       58.0       0.00       0.00      0.000
12:00pm           290          4          8         53         63       73.9       72.5      29.09      15.90       72.5       75.0       74.6       59.2       0.00       0.00      0.000
12:30pm           296          0          8         52         61       74.7       74.3      29.09      15.90       74.3       75.7       76.2       60.0       0.00       0.00      0.000
1:00pm            282          0         11         51         58       75.2       75.3      29.08      15.90       75.3       76.1       76.9       59.5       0.00       0.00      0.000
1:30pm            252          5         10         52         57       75.0       76.2      29.07      15.90       76.2       76.0       77.7       59.9       0.00       0.00      0.000
2:00pm            188          4         11         52         55       75.1       77.3      29.06      15.90       77.3       76.1       78.6       59.9       0.00       0.00      0.000
2:30pm            257          7         11         52         54       75.2       77.4      29.05      15.90       77.4       76.2       78.6       59.5       0.00       0.00      0.000
3:00pm            269          8         14         51         53       75.5       78.3      29.03      15.90       78.3       76.4       79.4       59.8       0.00       0.00      0.000
3:30pm            265          2         12         50         50       76.1       78.8      29.03      15.90       78.8       76.9       79.6       58.6       0.00       0.00      0.000
4:00pm            262          4         12         48         50       76.8       78.6      29.03      15.90       78.6       77.4       79.4       58.4       0.00       0.00      0.000
4:30pm            273          2         15         47         49       77.1       78.3      29.03      15.90       78.3       77.6       79.0       57.6       0.00       0.00      0.000
5:00pm            254          4         12         45         48       77.4       77.6      29.03      15.90       77.6       77.7       78.2       56.4       0.00       0.00      0.000
5:30pm            257          3         10         44         53       77.5       75.0      29.03      15.90       75.0       77.8       76.1       56.7       0.00       0.00      0.000
6:00pm            265          2         12         45         56       77.7       74.0      29.04      15.90       74.0       78.0       75.4       57.3       0.00       0.00      0.000
6:30pm            264          4         12         45         59       77.3       71.4      29.05      15.90       71.4       77.6       73.1       56.3       0.00       0.00      0.000
7:00pm            287          2          9         45         61       76.8       70.6      29.05      15.90       70.6       77.1       72.5       56.5       0.00       0.00      0.000
7:30pm            282          5          8         47         68       75.9       67.6      29.06      15.90       67.6       76.4       70.3       56.7       0.00       0.00      0.000
8:00pm            284          4          8         47         69       74.9       65.7      29.06      15.90       65.7       75.4       68.5       55.3       0.00       0.00      0.000
8:30pm            261          3          8         48         71       73.9       64.3      29.07      15.90       64.3       74.5       67.4       54.7       0.00       0.00      0.000
9:00pm            257          3          6         50         77       72.9       63.1      29.08      15.90       63.1       73.7       66.9       55.8       0.00       0.00      0.000
9:30pm            292          0          5         52         86       72.9       62.8      29.08      15.90       62.8       73.9       67.9       58.6       0.00       0.00      0.000
10:00pm           300          0          3         52         87       73.3       63.0      29.08      15.90       63.0       74.3       68.2       59.1       0.00       0.00      0.000
10:30pm           340          0          0         52         87       73.6       62.2      29.08      15.90       62.2       74.6       67.4       58.3       0.00       0.00      0.000
11:00pm           341          0          1         52         85       73.6       61.4      29.08      15.90       61.4       74.6       66.3       56.9       0.00       0.00      0.000
11:30pm           341          0          1         51         81       73.4       61.3      29.08      15.90       61.3       74.3       65.7       55.4       0.00       0.00      0.000